Time;durP1;ratioP1;P1;durP2;ratioP2;P2;SDS_P1;SDS_P2;PMS_P1;PMS_P2;Temp;Humidity;BMP_temperature;BMP_pressure;BME280_temperature;BME280_humidity;BME280_pressure;Samples;Min_cycle;Max_cycle;Signal;HPM_P1;HPM_P2
2022/12/14 00:01:40;;;;;;;27.58;11.52;;;;;;;;;;5088550;28;20059;-76
2022/12/14 00:04:10;;;;;;;27.70;11.30;;;;;;;;;;5089047;28;20127;-76
2022/12/14 00:06:36;;;;;;;30.02;12.20;;;;;;;;;;5097247;28;20075;-76
2022/12/14 00:09:03;;;;;;;28.38;12.00;;;;;;;;;;5088082;28;20049;-76
2022/12/14 00:11:31;;;;;;;29.60;12.68;;;;;;;;;;5115951;27;20051;-76
2022/12/14 00:13:59;;;;;;;37.42;13.18;;;;;;;;;;5109804;28;20135;-76
2022/12/14 00:16:26;;;;;;;33.67;13.00;;;;;;;;;;5109000;28;20056;-76
2022/12/14 00:18:53;;;;;;;30.33;11.80;;;;;;;;;;5086761;28;20063;-76
2022/12/14 00:21:20;;;;;;;25.90;10.65;;;;;;;;;;5092551;28;20055;-76
2022/12/14 00:23:48;;;;;;;26.63;11.88;;;;;;;;;;5092545;28;20528;-76
2022/12/14 00:26:16;;;;;;;25.25;11.30;;;;;;;;;;5110565;27;20126;-76
2022/12/14 00:28:43;;;;;;;26.55;11.10;;;;;;;;;;5123310;27;20495;-76
2022/12/14 00:31:10;;;;;;;27.35;11.30;;;;;;;;;;5092569;28;20045;-76
2022/12/14 00:33:36;;;;;;;24.15;10.88;;;;;;;;;;5104831;28;20135;-76
2022/12/14 00:36:04;;;;;;;25.38;10.80;;;;;;;;;;5103943;28;20075;-76
2022/12/14 00:38:30;;;;;;;24.88;10.10;;;;;;;;;;5088298;28;20083;-76
2022/12/14 00:40:57;;;;;;;26.85;10.50;;;;;;;;;;5088691;28;20080;-76
2022/12/14 00:43:24;;;;;;;26.58;11.32;;;;;;;;;;5103642;27;20147;-76
2022/12/14 00:45:50;;;;;;;25.95;10.98;;;;;;;;;;5129090;27;20052;-76
2022/12/14 00:48:18;;;;;;;30.23;12.15;;;;;;;;;;5119168;27;20053;-76
2022/12/14 00:50:45;;;;;;;25.48;10.52;;;;;;;;;;5099384;28;20474;-76
2022/12/14 00:53:14;;;;;;;24.95;10.18;;;;;;;;;;5102415;28;20541;-76
2022/12/14 00:55:41;;;;;;;25.77;10.82;;;;;;;;;;5087595;28;20060;-76
2022/12/14 00:58:12;;;;;;;27.17;10.80;;;;;;;;;;5103951;27;20059;-76
2022/12/14 01:00:39;;;;;;;27.10;10.32;;;;;;;;;;5097134;27;20507;-76
2022/12/14 01:03:06;;;;;;;29.00;11.15;;;;;;;;;;5108116;28;20181;-76
2022/12/14 01:05:33;;;;;;;31.13;11.57;;;;;;;;;;5107255;28;20052;-76
2022/12/14 01:07:59;;;;;;;26.25;10.60;;;;;;;;;;5108470;28;20280;-76
2022/12/14 01:10:26;;;;;;;25.15;11.05;;;;;;;;;;5097673;28;20083;-76
2022/12/14 01:12:52;;;;;;;30.70;11.43;;;;;;;;;;5086838;28;20052;-76
2022/12/14 01:15:19;;;;;;;25.15;10.98;;;;;;;;;;5120339;27;20510;-76
2022/12/14 01:17:45;;;;;;;24.30;10.73;;;;;;;;;;5128809;27;20063;-76
2022/12/14 01:20:11;;;;;;;25.17;10.40;;;;;;;;;;5118662;27;20055;-76
2022/12/14 01:22:38;;;;;;;23.30;10.35;;;;;;;;;;5097257;28;21289;-76
2022/12/14 01:25:04;;;;;;;28.75;10.82;;;;;;;;;;5105406;28;20129;-76
2022/12/14 01:27:31;;;;;;;23.45;10.23;;;;;;;;;;5099129;28;20135;-76
2022/12/14 01:29:57;;;;;;;24.70;10.55;;;;;;;;;;5091330;27;20100;-76
2022/12/14 01:32:23;;;;;;;23.60;10.27;;;;;;;;;;5112771;27;20052;-76
2022/12/14 01:34:50;;;;;;;23.67;11.07;;;;;;;;;;5099899;28;20917;-76
2022/12/14 01:37:16;;;;;;;22.58;10.02;;;;;;;;;;5107442;28;20048;-77
2022/12/14 01:39:43;;;;;;;22.55;10.38;;;;;;;;;;5092948;28;20060;-76
2022/12/14 01:42:13;;;;;;;25.65;10.55;;;;;;;;;;5088078;28;20149;-76
2022/12/14 01:44:42;;;;;;;23.67;10.00;;;;;;;;;;5087414;28;20503;-76
2022/12/14 01:47:18;;;;;;;24.15;10.32;;;;;;;;;;5108295;27;20794;-76
2022/12/14 01:49:48;;;;;;;27.98;10.55;;;;;;;;;;5128201;27;20139;-76
2022/12/14 01:52:18;;;;;;;26.63;11.10;;;;;;;;;;5120097;27;20054;-76
2022/12/14 01:54:51;;;;;;;23.38;10.38;;;;;;;;;;5106701;28;20055;-76
2022/12/14 01:57:22;;;;;;;24.30;10.38;;;;;;;;;;5103713;28;20052;-76
2022/12/14 01:59:49;;;;;;;24.02;10.63;;;;;;;;;;5082088;28;20056;-76
2022/12/14 02:02:16;;;;;;;25.55;9.77;;;;;;;;;;5096451;27;20505;-76
2022/12/14 02:04:44;;;;;;;22.45;9.32;;;;;;;;;;5086251;28;20056;-76
2022/12/14 02:07:12;;;;;;;23.15;10.40;;;;;;;;;;5094095;28;20144;-76
2022/12/14 02:09:40;;;;;;;25.38;10.57;;;;;;;;;;5106872;28;20106;-76
2022/12/14 02:12:06;;;;;;;24.83;10.25;;;;;;;;;;5104666;28;20813;-76
2022/12/14 02:14:33;;;;;;;24.67;10.90;;;;;;;;;;5092232;28;20511;-76
2022/12/14 02:17:00;;;;;;;21.45;10.07;;;;;;;;;;5086160;28;20711;-76
2022/12/14 02:19:26;;;;;;;26.27;10.77;;;;;;;;;;5109636;27;20079;-76
2022/12/14 02:21:53;;;;;;;24.67;10.45;;;;;;;;;;5106442;27;20533;-76
2022/12/14 02:24:22;;;;;;;22.27;10.23;;;;;;;;;;5100172;28;20439;-76
2022/12/14 02:27:00;;;;;;;25.77;10.50;;;;;;;;;;5091673;28;20049;-76
2022/12/14 02:29:56;;;;;;;22.75;9.88;;;;;;;;;;5087713;28;20049;-76
2022/12/14 02:32:41;;;;;;;25.05;10.32;;;;;;;;;;5068284;28;20518;-76
2022/12/14 02:35:17;;;;;;;26.23;10.60;;;;;;;;;;5085743;28;20136;-76
2022/12/14 02:37:49;;;;;;;22.48;10.90;;;;;;;;;;5086023;28;20048;-76
2022/12/14 02:40:32;;;;;;;23.48;9.63;;;;;;;;;;5097937;28;20053;-76
2022/12/14 02:43:17;;;;;;;23.38;9.77;;;;;;;;;;5106985;27;20213;-76
2022/12/14 02:45:47;;;;;;;22.42;10.40;;;;;;;;;;5085834;28;20053;-76
2022/12/14 02:48:29;;;;;;;25.60;11.43;;;;;;;;;;5096536;27;20070;-76
2022/12/14 02:51:02;;;;;;;19.98;9.38;;;;;;;;;;5100607;28;20522;-75
2022/12/14 02:53:31;;;;;;;26.23;9.52;;;;;;;;;;5105405;28;20447;-76
2022/12/14 02:56:01;;;;;;;24.13;10.13;;;;;;;;;;5109229;28;20048;-76
2022/12/14 02:58:31;;;;;;;21.77;10.07;;;;;;;;;;5119091;27;20343;-76
2022/12/14 03:00:58;;;;;;;25.50;10.45;;;;;;;;;;5110579;27;20059;-76
2022/12/14 03:03:24;;;;;;;22.15;10.85;;;;;;;;;;5089589;28;20516;-76
2022/12/14 03:05:57;;;;;;;29.88;10.77;;;;;;;;;;5089427;28;20083;-76
2022/12/14 03:08:24;;;;;;;28.98;11.18;;;;;;;;;;5088594;28;20052;-76
2022/12/14 03:11:04;;;;;;;27.55;11.23;;;;;;;;;;5103490;28;20086;-76
2022/12/14 03:13:33;;;;;;;26.27;10.80;;;;;;;;;;5097404;27;20055;-76
2022/12/14 03:16:03;;;;;;;24.85;10.77;;;;;;;;;;5129916;27;20055;-76
2022/12/14 03:18:34;;;;;;;28.07;10.80;;;;;;;;;;5125981;27;20062;-76
2022/12/14 03:21:01;;;;;;;23.58;10.10;;;;;;;;;;5099260;28;20201;-76
2022/12/14 03:23:31;;;;;;;24.30;11.30;;;;;;;;;;5098851;28;20079;-76
2022/12/14 03:26:15;;;;;;;30.17;10.63;;;;;;;;;;5098837;28;20075;-76
2022/12/14 03:28:46;;;;;;;23.73;10.32;;;;;;;;;;5089408;28;20056;-76
2022/12/14 03:31:16;;;;;;;22.23;9.10;;;;;;;;;;5107587;27;20078;-76
2022/12/14 03:33:43;;;;;;;24.90;10.57;;;;;;;;;;5107038;27;20130;-76
2022/12/14 03:36:10;;;;;;;24.42;10.45;;;;;;;;;;5070443;28;20049;-76
2022/12/14 03:38:39;;;;;;;23.77;9.65;;;;;;;;;;5089790;28;20059;-76
2022/12/14 03:41:21;;;;;;;26.67;10.13;;;;;;;;;;5107994;28;20052;-76
2022/12/14 03:43:48;;;;;;;21.88;10.05;;;;;;;;;;5096050;28;20060;-76
2022/12/14 03:46:26;;;;;;;24.02;10.80;;;;;;;;;;5103663;27;20062;-76
2022/12/14 03:48:55;;;;;;;27.67;10.68;;;;;;;;;;5117775;27;20079;-76
2022/12/14 03:51:21;;;;;;;24.27;10.23;;;;;;;;;;5108831;28;20052;-76
2022/12/14 03:53:50;;;;;;;20.98;9.88;;;;;;;;;;5102830;28;20512;-76
2022/12/14 03:56:20;;;;;;;26.27;10.93;;;;;;;;;;5097999;28;20522;-76
2022/12/14 03:59:05;;;;;;;21.55;9.73;;;;;;;;;;5104106;28;20514;-76
2022/12/14 04:01:50;;;;;;;25.23;9.95;;;;;;;;;;5092260;27;20487;-76
2022/12/14 04:04:22;;;;;;;25.45;10.15;;;;;;;;;;5116772;27;20049;-76
2022/12/14 04:07:02;;;;;;;25.42;10.05;;;;;;;;;;5107942;28;20056;-76
2022/12/14 04:09:40;;;;;;;24.10;10.13;;;;;;;;;;5105668;28;20330;-76
2022/12/14 04:20:49;;;;;;;27.88;11.25;;;;;;;;;;5107392;27;20054;-76
2022/12/14 04:26:03;;;;;;;26.92;10.45;;;;;;;;;;5108405;28;20048;-75
2022/12/14 04:26:06;;;;;;;24.08;10.00;;;;;;;;;;5098508;28;20048;-76
2022/12/14 04:31:27;;;;;;;21.25;10.38;;;;;;;;;;5092482;28;20056;-76
2022/12/14 04:33:56;;;;;;;;;;;;;;;;;;5088747;27;20175;-76
2022/12/14 04:36:26;;;;;;;27.55;10.07;;;;;;;;;;5086682;28;41990;-76
2022/12/14 04:39:00;;;;;;;28.40;10.25;;;;;;;;;;5105102;28;20051;-76
2022/12/14 04:41:30;;;;;;;25.40;11.30;;;;;;;;;;5108634;28;20123;-76
2022/12/14 04:43:58;;;;;;;24.33;10.18;;;;;;;;;;5107864;28;20530;-76
2022/12/14 04:46:26;;;;;;;26.08;10.88;;;;;;;;;;5089494;28;20048;-75
2022/12/14 04:48:57;;;;;;;23.35;10.13;;;;;;;;;;5070633;28;20059;-76
2022/12/14 04:51:25;;;;;;;26.52;10.85;;;;;;;;;;5104942;27;20063;-76
2022/12/14 04:53:56;;;;;;;24.27;10.37;;;;;;;;;;5087242;28;20048;-76
2022/12/14 04:56:25;;;;;;;25.02;10.57;;;;;;;;;;5086926;28;20132;-76
2022/12/14 04:58:52;;;;;;;26.08;10.65;;;;;;;;;;5104011;28;20101;-76
2022/12/14 05:01:19;;;;;;;23.38;10.98;;;;;;;;;;5096361;28;20059;-76
2022/12/14 05:03:51;;;;;;;25.33;11.45;;;;;;;;;;5087990;28;20518;-76
2022/12/14 05:06:20;;;;;;;26.95;10.88;;;;;;;;;;5099230;27;20603;-76
2022/12/14 05:08:50;;;;;;;25.20;10.45;;;;;;;;;;5096829;27;20052;-76
2022/12/14 05:11:55;;;;;;;23.15;10.25;;;;;;;;;;5102364;28;20057;-76
2022/12/14 05:14:25;;;;;;;26.90;10.35;;;;;;;;;;5022580;28;20532;-76
2022/12/14 05:16:52;;;;;;;25.58;11.00;;;;;;;;;;5022255;28;20053;-76
2022/12/14 05:19:18;;;;;;;28.75;11.35;;;;;;;;;;5054140;28;20075;-76
2022/12/14 05:21:47;;;;;;;26.58;10.57;;;;;;;;;;5087090;27;20060;-76
2022/12/14 05:24:15;;;;;;;24.00;11.07;;;;;;;;;;5089116;28;20052;-75
2022/12/14 05:26:41;;;;;;;38.38;11.73;;;;;;;;;;5088746;28;20374;-76
2022/12/14 05:29:08;;;;;;;28.33;10.90;;;;;;;;;;5086925;28;20836;-76
2022/12/14 05:31:34;;;;;;;23.90;10.48;;;;;;;;;;5101521;28;20581;-76
2022/12/14 05:34:00;;;;;;;25.90;10.93;;;;;;;;;;5097302;28;20565;-76
2022/12/14 05:36:27;;;;;;;27.08;11.13;;;;;;;;;;5086328;28;20044;-76
2022/12/14 05:38:53;;;;;;;24.48;10.77;;;;;;;;;;5107681;27;20058;-76
2022/12/14 05:41:19;;;;;;;26.17;10.70;;;;;;;;;;5126393;27;20063;-76
2022/12/14 05:43:45;;;;;;;21.83;10.18;;;;;;;;;;5081223;28;20055;-76
2022/12/14 05:46:14;;;;;;;24.52;9.90;;;;;;;;;;5087935;28;20061;-76
2022/12/14 05:48:40;;;;;;;22.63;9.73;;;;;;;;;;5086392;28;20072;-76
2022/12/14 05:51:14;;;;;;;25.00;10.07;;;;;;;;;;5087202;28;20052;-76
2022/12/14 05:53:40;;;;;;;27.10;10.90;;;;;;;;;;5091101;28;20063;-76
2022/12/14 05:56:07;;;;;;;26.38;9.93;;;;;;;;;;5123288;27;20575;-76
2022/12/14 05:58:34;;;;;;;25.27;10.00;;;;;;;;;;5126298;27;20506;-76
2022/12/14 06:01:02;;;;;;;32.15;11.23;;;;;;;;;;5086342;28;20254;-76
2022/12/14 06:03:28;;;;;;;22.48;9.55;;;;;;;;;;5095566;28;20091;-77
2022/12/14 06:06:01;;;;;;;23.40;10.15;;;;;;;;;;5106616;28;20482;-77
2022/12/14 06:08:32;;;;;;;27.05;9.73;;;;;;;;;;5107403;28;20044;-77
2022/12/14 06:11:05;;;;;;;23.60;9.60;;;;;;;;;;5107070;27;20072;-78
2022/12/14 06:13:31;;;;;;;25.67;9.57;;;;;;;;;;5115402;27;20586;-77
2022/12/14 06:16:33;;;;;;;24.00;10.35;;;;;;;;;;5102965;27;20052;-78
2022/12/14 06:19:00;;;;;;;24.33;10.38;;;;;;;;;;5026054;28;20050;-77
2022/12/14 06:21:31;;;;;;;30.13;9.90;;;;;;;;;;5074987;28;20072;-77
2022/12/14 06:23:58;;;;;;;28.77;10.23;;;;;;;;;;5089424;27;20509;-77
2022/12/14 06:26:25;;;;;;;23.50;9.50;;;;;;;;;;5087718;28;20057;-77
2022/12/14 06:28:51;;;;;;;30.00;10.88;;;;;;;;;;5090611;28;20526;-77
2022/12/14 06:31:22;;;;;;;25.30;10.95;;;;;;;;;;5090468;28;20608;-78
2022/12/14 06:33:49;;;;;;;24.85;10.55;;;;;;;;;;5106473;27;20119;-77
2022/12/14 06:36:17;;;;;;;23.88;10.55;;;;;;;;;;5106921;28;20063;-77
2022/12/14 06:38:43;;;;;;;24.65;10.13;;;;;;;;;;5109631;27;20147;-77
2022/12/14 06:41:10;;;;;;;22.23;10.45;;;;;;;;;;5108583;27;20585;-77
2022/12/14 06:43:37;;;;;;;22.73;9.57;;;;;;;;;;5109720;28;20056;-77
2022/12/14 06:46:14;;;;;;;29.70;11.35;;;;;;;;;;5101469;28;20083;-77
2022/12/14 06:48:41;;;;;;;25.00;11.00;;;;;;;;;;5092767;27;20079;-77
2022/12/14 06:51:08;;;;;;;22.92;10.98;;;;;;;;;;5095244;27;20060;-77
2022/12/14 06:53:34;;;;;;;25.40;9.45;;;;;;;;;;5090703;28;20086;-77
2022/12/14 06:56:08;;;;;;;29.20;11.02;;;;;;;;;;5089243;27;20053;-77
2022/12/14 06:58:34;;;;;;;23.20;10.00;;;;;;;;;;5089328;27;20053;-77
2022/12/14 07:01:04;;;;;;;26.20;10.27;;;;;;;;;;5089986;28;20509;-78
2022/12/14 07:03:30;;;;;;;21.13;10.48;;;;;;;;;;5090080;28;20495;-78
2022/12/14 07:05:58;;;;;;;23.90;9.80;;;;;;;;;;5103646;28;20056;-77
2022/12/14 07:08:25;;;;;;;26.63;10.45;;;;;;;;;;5094772;28;20555;-77
2022/12/14 07:10:52;;;;;;;30.40;10.00;;;;;;;;;;5091774;28;20083;-77
2022/12/14 07:13:25;;;;;;;27.95;11.10;;;;;;;;;;5108682;27;20056;-77
2022/12/14 07:15:56;;;;;;;27.08;10.27;;;;;;;;;;5109540;28;20521;-78
2022/12/14 07:18:23;;;;;;;23.23;11.68;;;;;;;;;;5090758;28;20105;-77
2022/12/14 07:20:55;;;;;;;27.33;11.25;;;;;;;;;;5103140;28;20052;-77
2022/12/14 07:23:23;;;;;;;25.77;10.65;;;;;;;;;;5085997;28;20522;-77
2022/12/14 07:26:04;;;;;;;28.85;11.38;;;;;;;;;;5090552;28;20061;-77
2022/12/14 07:28:30;;;;;;;26.40;10.88;;;;;;;;;;5088890;28;20068;-78
2022/12/14 07:30:57;;;;;;;24.98;10.43;;;;;;;;;;5096122;27;20052;-78
2022/12/14 07:33:24;;;;;;;27.23;11.35;;;;;;;;;;5103150;28;20054;-78
2022/12/14 07:35:59;;;;;;;25.70;10.95;;;;;;;;;;5108666;28;20048;-77
2022/12/14 07:38:25;;;;;;;32.63;10.52;;;;;;;;;;5088554;28;20079;-76
2022/12/14 07:40:52;;;;;;;29.77;11.95;;;;;;;;;;5095141;28;20639;-76
2022/12/14 07:43:19;;;;;;;30.65;12.75;;;;;;;;;;5088976;28;20152;-76
2022/12/14 07:45:45;;;;;;;26.63;11.65;;;;;;;;;;5104231;28;20510;-76
2022/12/14 07:48:11;;;;;;;31.90;11.23;;;;;;;;;;5097163;27;20474;-76
2022/12/14 07:50:38;;;;;;;30.25;12.32;;;;;;;;;;5117048;27;20495;-76
2022/12/14 07:53:04;;;;;;;32.85;12.95;;;;;;;;;;5098800;28;20424;-76
2022/12/14 07:55:33;;;;;;;28.25;11.45;;;;;;;;;;5087797;28;20110;-76
2022/12/14 07:57:59;;;;;;;24.67;11.40;;;;;;;;;;5092166;28;20509;-76
2022/12/14 08:00:26;;;;;;;23.67;10.52;;;;;;;;;;5107595;28;20052;-76
2022/12/14 08:02:54;;;;;;;26.60;11.82;;;;;;;;;;5108532;28;20052;-76
2022/12/14 08:05:20;;;;;;;23.33;10.00;;;;;;;;;;5107473;27;20052;-77
2022/12/14 08:07:46;;;;;;;23.27;10.25;;;;;;;;;;5097066;27;20052;-76
2022/12/14 08:10:15;;;;;;;23.95;10.52;;;;;;;;;;5103261;27;20053;-76
2022/12/14 08:12:42;;;;;;;26.67;10.95;;;;;;;;;;5104001;27;20514;-76
2022/12/14 08:15:08;;;;;;;29.50;13.20;;;;;;;;;;5107915;27;20052;-77
2022/12/14 08:17:34;;;;;;;28.52;12.88;;;;;;;;;;5124172;27;20090;-76
2022/12/14 08:20:01;;;;;;;27.63;11.30;;;;;;;;;;5090806;28;20068;-76
2022/12/14 08:22:27;;;;;;;25.38;10.70;;;;;;;;;;5090959;28;20171;-76
2022/12/14 08:24:53;;;;;;;22.15;10.05;;;;;;;;;;5105553;27;20058;-76
2022/12/14 08:27:20;;;;;;;29.40;11.45;;;;;;;;;;5114406;27;20074;-76
2022/12/14 08:29:46;;;;;;;26.17;11.32;;;;;;;;;;5103467;27;20543;-76
2022/12/14 08:32:12;;;;;;;28.13;12.65;;;;;;;;;;5077475;28;20059;-77
2022/12/14 08:34:39;;;;;;;28.63;12.30;;;;;;;;;;5095070;28;20048;-76
2022/12/14 08:37:05;;;;;;;28.60;12.00;;;;;;;;;;5101142;27;20517;-77
2022/12/14 08:39:31;;;;;;;24.65;10.65;;;;;;;;;;5092447;27;20420;-76
2022/12/14 08:41:57;;;;;;;23.10;11.00;;;;;;;;;;5108382;27;20092;-76
2022/12/14 08:44:24;;;;;;;30.05;12.15;;;;;;;;;;5109599;27;20052;-76
2022/12/14 08:46:50;;;;;;;30.50;11.45;;;;;;;;;;5087494;28;20055;-76
2022/12/14 08:49:17;;;;;;;28.85;11.50;;;;;;;;;;5094439;27;20055;-76
2022/12/14 08:51:43;;;;;;;29.20;11.38;;;;;;;;;;5100953;28;20530;-76
2022/12/14 08:54:10;;;;;;;25.80;12.02;;;;;;;;;;5093037;28;20052;-76
2022/12/14 08:56:36;;;;;;;28.25;11.27;;;;;;;;;;5105471;27;20067;-77
2022/12/14 08:59:05;;;;;;;26.50;11.45;;;;;;;;;;5113519;27;20541;-77
2022/12/14 09:01:33;;;;;;;27.73;11.68;;;;;;;;;;5127996;27;20047;-77
2022/12/14 09:04:04;;;;;;;25.92;11.20;;;;;;;;;;5128831;27;20086;-76
2022/12/14 09:06:44;;;;;;;27.17;11.40;;;;;;;;;;5101944;27;20122;-77
2022/12/14 09:09:27;;;;;;;28.50;11.15;;;;;;;;;;5084382;28;20052;-77
2022/12/14 09:12:16;;;;;;;22.48;10.30;;;;;;;;;;5105717;28;20067;-76
2022/12/14 09:14:45;;;;;;;29.15;11.35;;;;;;;;;;5097191;27;20578;-77
2022/12/14 09:17:17;;;;;;;29.70;12.77;;;;;;;;;;5088000;27;20087;-77
2022/12/14 09:19:43;;;;;;;29.50;12.98;;;;;;;;;;5088775;27;20052;-76
2022/12/14 09:22:10;;;;;;;30.70;13.98;;;;;;;;;;5087072;28;20053;-76
2022/12/14 09:24:40;;;;;;;40.00;15.73;;;;;;;;;;5085975;28;20052;-76
2022/12/14 09:27:07;;;;;;;36.50;13.93;;;;;;;;;;5091669;28;20056;-76
2022/12/14 09:29:34;;;;;;;28.90;12.85;;;;;;;;;;5089639;27;20877;-76
2022/12/14 09:32:00;;;;;;;30.67;13.43;;;;;;;;;;5101007;28;20059;-76
2022/12/14 09:34:28;;;;;;;26.88;11.30;;;;;;;;;;5105056;27;20052;-76
2022/12/14 09:36:54;;;;;;;27.33;12.88;;;;;;;;;;5075693;27;20106;-76
2022/12/14 09:39:20;;;;;;;36.35;13.27;;;;;;;;;;5087112;28;20444;-76
2022/12/14 09:41:51;;;;;;;27.55;11.55;;;;;;;;;;5079527;28;20056;-76
2022/12/14 09:44:24;;;;;;;26.10;10.48;;;;;;;;;;5097434;27;20134;-76
2022/12/14 09:46:50;;;;;;;24.80;10.38;;;;;;;;;;5106838;27;20074;-76
2022/12/14 09:49:37;;;;;;;25.02;10.50;;;;;;;;;;5088285;27;20144;-76
2022/12/14 09:52:05;;;;;;;26.52;10.30;;;;;;;;;;5071915;27;20100;-76
2022/12/14 09:54:33;;;;;;;26.63;10.45;;;;;;;;;;5102180;27;20076;-76
2022/12/14 09:57:02;;;;;;;30.98;11.55;;;;;;;;;;5097842;28;20052;-76
2022/12/14 09:59:32;;;;;;;29.40;11.25;;;;;;;;;;5094497;28;20048;-76
2022/12/14 10:02:19;;;;;;;27.38;11.13;;;;;;;;;;5098722;27;20434;-76
2022/12/14 10:05:11;;;;;;;25.00;11.60;;;;;;;;;;5088298;27;20503;-76
2022/12/14 10:07:43;;;;;;;26.35;10.23;;;;;;;;;;5094853;28;20088;-76
2022/12/14 10:10:13;;;;;;;22.38;9.98;;;;;;;;;;5100571;28;20043;-78
2022/12/14 10:12:42;;;;;;;23.42;11.40;;;;;;;;;;5093413;27;20059;-76
2022/12/14 10:15:15;;;;;;;22.40;10.23;;;;;;;;;;5090455;28;20131;-76
2022/12/14 10:18:00;;;;;;;28.77;11.23;;;;;;;;;;5093065;28;20139;-77
2022/12/14 10:20:35;;;;;;;25.40;10.52;;;;;;;;;;5089560;28;20137;-77
2022/12/14 10:23:04;;;;;;;23.27;10.57;;;;;;;;;;5093506;27;20049;-77
2022/12/14 10:25:33;;;;;;;39.00;11.07;;;;;;;;;;5079796;28;20075;-77
2022/12/14 10:28:02;;;;;;;23.75;10.18;;;;;;;;;;5097813;27;20053;-77
2022/12/14 10:30:39;;;;;;;21.45;9.25;;;;;;;;;;5130084;27;20402;-77
2022/12/14 10:33:23;;;;;;;23.35;10.48;;;;;;;;;;5100896;27;20163;-77
2022/12/14 10:35:51;;;;;;;25.77;10.13;;;;;;;;;;5112102;28;20048;-77
2022/12/14 10:38:24;;;;;;;25.52;9.88;;;;;;;;;;5105593;27;20090;-77
2022/12/14 10:40:52;;;;;;;22.15;9.98;;;;;;;;;;5100450;28;20056;-77
2022/12/14 10:43:19;;;;;;;28.02;11.38;;;;;;;;;;5105458;27;20052;-77
2022/12/14 10:45:48;;;;;;;28.75;10.25;;;;;;;;;;5072666;28;20530;-77
2022/12/14 10:48:31;;;;;;;29.35;11.57;;;;;;;;;;5093887;28;20048;-77
2022/12/14 10:50:58;;;;;;;23.77;9.90;;;;;;;;;;5099579;27;20140;-77
2022/12/14 10:53:29;;;;;;;26.00;10.18;;;;;;;;;;5113165;27;20052;-77
2022/12/14 10:56:03;;;;;;;24.42;10.30;;;;;;;;;;5117636;27;20052;-77
2022/12/14 10:58:30;;;;;;;23.20;10.95;;;;;;;;;;5105092;28;20052;-77
2022/12/14 11:00:58;;;;;;;20.33;9.40;;;;;;;;;;5103015;27;20197;-77
2022/12/14 11:03:24;;;;;;;26.63;11.05;;;;;;;;;;5121527;27;20047;-77
2022/12/14 11:06:02;;;;;;;20.58;9.57;;;;;;;;;;5101524;28;20055;-77
2022/12/14 11:08:39;;;;;;;26.08;10.35;;;;;;;;;;5108830;27;20056;-77
2022/12/14 11:11:12;;;;;;;24.45;10.77;;;;;;;;;;5106305;27;20045;-77
2022/12/14 11:13:51;;;;;;;20.52;9.55;;;;;;;;;;5094825;27;20064;-76
2022/12/14 11:16:24;;;;;;;23.08;9.20;;;;;;;;;;5102179;27;20052;-77
2022/12/14 11:19:00;;;;;;;21.40;9.80;;;;;;;;;;5105473;27;20519;-76
2022/12/14 11:21:35;;;;;;;24.88;9.85;;;;;;;;;;5089859;28;20068;-76
2022/12/14 11:24:02;;;;;;;22.88;10.18;;;;;;;;;;5114800;27;20056;-77
2022/12/14 11:26:32;;;;;;;22.67;9.98;;;;;;;;;;5121717;27;20095;-76
2022/12/14 11:28:59;;;;;;;;;;;;;;;;;;5096087;28;20155;-77
2022/12/14 11:31:31;;;;;;;23.90;10.10;;;;;;;;;;5108621;27;45817;-77
2022/12/14 11:33:58;;;;;;;24.90;10.40;;;;;;;;;;5108321;27;20131;-77
2022/12/14 11:36:25;;;;;;;27.85;10.60;;;;;;;;;;5114401;27;20050;-77
2022/12/14 11:39:02;;;;;;;27.05;10.98;;;;;;;;;;5107446;28;20045;-77
2022/12/14 11:41:36;;;;;;;26.92;11.10;;;;;;;;;;5111355;27;20060;-77
2022/12/14 11:44:22;;;;;;;26.15;10.88;;;;;;;;;;5098613;28;20575;-76
2022/12/14 11:46:51;;;;;;;24.85;9.85;;;;;;;;;;5102042;27;20139;-76
2022/12/14 11:49:28;;;;;;;23.25;10.13;;;;;;;;;;5089303;28;20052;-76
2022/12/14 11:51:54;;;;;;;23.08;10.27;;;;;;;;;;5094701;28;20054;-75
2022/12/14 11:54:21;;;;;;;25.52;10.13;;;;;;;;;;5112242;27;20062;-76
2022/12/14 11:56:54;;;;;;;22.73;9.95;;;;;;;;;;5104049;27;20052;-76
2022/12/14 11:59:21;;;;;;;20.98;9.75;;;;;;;;;;5091443;28;20060;-76
2022/12/14 12:01:47;;;;;;;22.75;8.73;;;;;;;;;;5110354;28;20052;-76
2022/12/14 12:04:17;;;;;;;20.45;9.60;;;;;;;;;;5087571;28;20048;-76
2022/12/14 12:06:44;;;;;;;21.98;9.70;;;;;;;;;;5103609;28;20134;-76
2022/12/14 12:09:20;;;;;;;20.15;9.50;;;;;;;;;;5101790;27;20059;-76
2022/12/14 12:11:46;;;;;;;22.85;9.73;;;;;;;;;;5095126;27;20056;-76
2022/12/14 12:14:28;;;;;;;25.33;11.02;;;;;;;;;;5089140;27;20053;-76
2022/12/14 12:16:54;;;;;;;21.02;9.80;;;;;;;;;;5129920;27;20063;-76
2022/12/14 12:19:27;;;;;;;24.05;9.68;;;;;;;;;;5120086;27;20068;-76
2022/12/14 12:21:55;;;;;;;25.00;10.23;;;;;;;;;;5073427;27;21703;-77
2022/12/14 12:24:23;;;;;;;22.23;9.43;;;;;;;;;;5107208;27;20316;-75
2022/12/14 12:26:52;;;;;;;23.00;9.77;;;;;;;;;;5098013;28;20048;-76
2022/12/14 12:29:25;;;;;;;23.55;10.38;;;;;;;;;;5075035;28;20055;-75
2022/12/14 12:32:10;;;;;;;26.52;11.18;;;;;;;;;;5094955;28;20063;-76
2022/12/14 12:34:50;;;;;;;20.77;10.63;;;;;;;;;;5107152;28;20056;-76
2022/12/14 12:37:19;;;;;;;25.27;11.10;;;;;;;;;;5110077;27;20055;-77
2022/12/14 12:39:57;;;;;;;26.17;11.05;;;;;;;;;;5105809;27;20033;-75
2022/12/14 12:42:46;;;;;;;24.35;11.38;;;;;;;;;;5106039;27;20056;-76
2022/12/14 12:45:19;;;;;;;24.13;10.43;;;;;;;;;;5075598;27;20142;-76
2022/12/14 12:47:57;;;;;;;27.23;9.45;;;;;;;;;;5097379;28;20136;-86
2022/12/14 12:50:28;;;;;;;20.50;9.20;;;;;;;;;;5096796;27;20063;-76
2022/12/14 12:52:59;;;;;;;25.05;10.70;;;;;;;;;;5094024;27;20096;-76
2022/12/14 12:55:30;;;;;;;21.25;10.02;;;;;;;;;;5107962;28;20455;-77
2022/12/14 12:57:57;;;;;;;26.02;10.45;;;;;;;;;;5096899;27;20048;-78
2022/12/14 13:00:25;;;;;;;22.52;9.93;;;;;;;;;;5115036;27;20134;-77
2022/12/14 13:02:55;;;;;;;25.88;10.73;;;;;;;;;;5105963;27;20056;-77
2022/12/14 13:05:24;;;;;;;24.20;10.60;;;;;;;;;;5089921;28;20053;-80
2022/12/14 13:08:13;;;;;;;27.23;10.60;;;;;;;;;;5104336;27;20576;-81
2022/12/14 13:10:40;;;;;;;26.00;9.55;;;;;;;;;;5104894;27;20057;-76
2022/12/14 13:13:31;;;;;;;27.95;9.70;;;;;;;;;;5087933;28;20135;-78
2022/12/14 13:16:06;;;;;;;22.02;9.48;;;;;;;;;;5069531;28;20062;-76
2022/12/14 13:18:41;;;;;;;20.23;8.13;;;;;;;;;;5090401;27;20052;-77
2022/12/14 13:21:37;;;;;;;15.77;7.47;;;;;;;;;;5104304;28;20056;-79
2022/12/14 13:24:10;;;;;;;14.95;6.43;;;;;;;;;;5110932;27;20051;-78
2022/12/14 13:26:36;;;;;;;13.98;6.15;;;;;;;;;;5104492;27;20056;-77
2022/12/14 13:29:34;;;;;;;13.05;6.13;;;;;;;;;;5084387;28;20529;-79
2022/12/14 13:32:30;;;;;;;15.68;6.97;;;;;;;;;;5089795;27;20056;-79
2022/12/14 13:35:21;;;;;;;15.27;6.47;;;;;;;;;;5083697;27;20056;-77
2022/12/14 13:38:06;;;;;;;15.50;6.93;;;;;;;;;;5096234;28;20164;-78
2022/12/14 13:40:33;;;;;;;15.52;6.95;;;;;;;;;;5093919;27;20048;-78
2022/12/14 13:43:05;;;;;;;14.55;7.18;;;;;;;;;;5097519;27;20055;-76
2022/12/14 13:45:37;;;;;;;21.42;7.35;;;;;;;;;;5125878;27;20134;-76
2022/12/14 13:48:07;;;;;;;16.83;6.93;;;;;;;;;;5127712;27;20425;-77
2022/12/14 13:50:35;;;;;;;16.58;6.93;;;;;;;;;;5114657;27;20049;-78
2022/12/14 13:53:11;;;;;;;16.67;7.03;;;;;;;;;;5088631;27;20499;-77
2022/12/14 13:55:51;;;;;;;17.63;6.97;;;;;;;;;;5096583;27;20088;-80
2022/12/14 13:58:20;;;;;;;20.45;8.73;;;;;;;;;;5118939;27;20051;-79
2022/12/14 14:00:51;;;;;;;17.02;7.20;;;;;;;;;;5101771;27;20435;-78
2022/12/14 14:03:33;;;;;;;18.42;7.30;;;;;;;;;;5097575;27;20049;-77
2022/12/14 14:06:00;;;;;;;19.88;8.02;;;;;;;;;;5105967;27;20121;-77
2022/12/14 14:08:28;;;;;;;18.83;8.18;;;;;;;;;;5075868;27;20048;-77
2022/12/14 14:11:21;;;;;;;20.83;8.57;;;;;;;;;;5113508;27;20811;-76
2022/12/14 14:14:27;;;;;;;19.33;9.00;;;;;;;;;;5101070;27;20071;-77
2022/12/14 14:16:56;;;;;;;20.05;9.43;;;;;;;;;;5060347;27;20514;-77
2022/12/14 14:19:25;;;;;;;30.02;11.63;;;;;;;;;;5092190;28;20061;-77
2022/12/14 14:22:08;;;;;;;26.33;9.60;;;;;;;;;;5103990;27;20605;-77
2022/12/14 14:24:51;;;;;;;14.63;7.40;;;;;;;;;;5086834;28;20052;-77
2022/12/14 14:27:19;;;;;;;17.33;8.63;;;;;;;;;;5087123;28;20059;-77
2022/12/14 14:29:46;;;;;;;17.92;8.00;;;;;;;;;;5086370;28;20056;-77
2022/12/14 14:32:23;;;;;;;18.60;8.23;;;;;;;;;;5093950;27;20180;-79
2022/12/14 14:34:50;;;;;;;21.65;8.73;;;;;;;;;;5107832;27;20099;-78
2022/12/14 14:37:19;;;;;;;19.85;8.25;;;;;;;;;;5112282;27;20066;-79
2022/12/14 14:39:55;;;;;;;16.60;8.25;;;;;;;;;;5082296;28;20071;-77
2022/12/14 14:42:37;;;;;;;17.85;8.85;;;;;;;;;;5091070;28;20067;-76
2022/12/14 14:45:04;;;;;;;19.40;9.20;;;;;;;;;;5092160;27;20051;-79
2022/12/14 14:47:35;;;;;;;21.45;9.30;;;;;;;;;;5093052;27;20519;-78
2022/12/14 14:50:02;;;;;;;;;;;;;;;;;;5089669;28;20060;-77
2022/12/14 14:52:38;;;;;;;20.27;9.10;;;;;;;;;;5086969;27;45927;-76
2022/12/14 14:55:23;;;;;;;20.02;8.50;;;;;;;;;;5102742;28;20087;-77